createdAt,value
2023-02-11T00:01:00.449Z,15.80
2023-02-11T00:03:30.523Z,15.87
2023-02-11T00:06:02.444Z,15.73
2023-02-11T00:08:32.522Z,17.83
2023-02-11T00:11:02.616Z,17.17
2023-02-11T00:13:35.357Z,16.10
2023-02-11T00:16:10.838Z,15.33
2023-02-11T00:18:41.155Z,16.40
2023-02-11T00:21:13.175Z,17.13
2023-02-11T00:23:43.619Z,17.27
2023-02-11T00:26:18.846Z,16.90
2023-02-11T00:28:54.136Z,16.20
2023-02-11T00:31:27.279Z,17.10
2023-02-11T00:33:58.336Z,16.50
2023-02-11T00:36:31.326Z,16.30
2023-02-11T00:39:02.857Z,16.40
2023-02-11T00:41:33.697Z,16.87
2023-02-11T00:44:09.604Z,16.30
2023-02-11T00:46:39.736Z,16.47
2023-02-11T00:49:09.950Z,15.87
2023-02-11T00:51:40.410Z,14.83
2023-02-11T00:54:11.107Z,16.37
2023-02-11T00:56:44.718Z,16.33
2023-02-11T00:59:17.409Z,17.23
2023-02-11T01:01:47.600Z,17.23
2023-02-11T01:04:17.795Z,16.63
2023-02-11T01:06:47.886Z,16.67
2023-02-11T01:09:24.088Z,17.50
2023-02-11T01:11:54.265Z,16.43
2023-02-11T01:14:27.077Z,17.03
2023-02-11T01:16:57.123Z,15.50
2023-02-11T01:19:27.184Z,15.33
2023-02-11T01:21:57.264Z,14.80
2023-02-11T01:24:27.354Z,14.60
2023-02-11T01:27:00.003Z,14.97
2023-02-11T01:29:32.722Z,15.97
2023-02-11T01:32:04.284Z,15.33
2023-02-11T01:34:34.450Z,14.40
2023-02-11T01:37:04.505Z,14.50
2023-02-11T01:39:39.143Z,14.30
2023-02-11T01:42:09.762Z,14.10
2023-02-11T01:44:42.891Z,14.70
2023-02-11T01:47:13.919Z,13.83
2023-02-11T01:49:50.169Z,14.30
2023-02-11T01:52:28.262Z,14.60
2023-02-11T01:55:17.650Z,14.67
2023-02-11T01:57:56.411Z,14.63
2023-02-11T02:00:36.630Z,14.77
2023-02-11T02:03:14.395Z,13.83
2023-02-11T02:05:56.581Z,14.57
2023-02-11T02:08:34.520Z,14.40
2023-02-11T02:11:05.771Z,14.13
2023-02-11T02:13:37.905Z,14.40
2023-02-11T02:16:17.265Z,13.00
2023-02-11T02:18:58.960Z,12.63
2023-02-11T02:22:22.748Z,13.17
2023-02-11T02:25:30.707Z,12.63
2023-02-11T02:28:23.710Z,12.77
2023-02-11T02:31:51.343Z,12.90
2023-02-11T02:34:33.164Z,12.73
2023-02-11T02:37:15.883Z,13.70
2023-02-11T02:39:51.144Z,13.27
2023-02-11T02:42:24.262Z,14.53
2023-02-11T02:44:56.487Z,14.53
2023-02-11T02:47:26.547Z,14.10
2023-02-11T02:49:59.463Z,13.63
2023-02-11T02:52:45.030Z,14.53
2023-02-11T02:55:37.837Z,14.77
2023-02-11T02:59:04.571Z,14.20
2023-02-11T03:01:48.026Z,13.77
2023-02-11T03:04:31.647Z,13.83
2023-02-11T03:07:12.967Z,13.67
2023-02-11T03:09:51.242Z,13.77
2023-02-11T03:12:25.002Z,13.77
2023-02-11T03:14:55.867Z,14.47
2023-02-11T03:17:29.130Z,13.73
2023-02-11T03:20:02.817Z,14.83
2023-02-11T03:22:43.747Z,12.97
2023-02-11T03:25:13.995Z,14.20
2023-02-11T03:27:55.283Z,14.07
2023-02-11T03:30:33.259Z,15.17
2023-02-11T03:33:11.955Z,14.67
2023-02-11T03:35:50.650Z,14.20
2023-02-11T03:38:30.849Z,14.57
2023-02-11T03:41:04.674Z,13.30
2023-02-11T03:43:40.695Z,13.60
2023-02-11T03:46:13.283Z,14.37
2023-02-11T03:48:47.853Z,13.67
2023-02-11T03:51:20.092Z,13.50
2023-02-11T03:54:00.521Z,13.20
2023-02-11T03:56:38.514Z,14.50
2023-02-11T03:59:08.630Z,14.00
2023-02-11T04:01:38.932Z,14.23
2023-02-11T04:04:09.285Z,13.43
2023-02-11T04:06:39.474Z,13.93
2023-02-11T04:09:14.976Z,13.30
2023-02-11T04:11:45.108Z,13.90
2023-02-11T04:14:15.171Z,13.20
2023-02-11T04:16:45.353Z,14.53
2023-02-11T04:19:15.469Z,13.23
2023-02-11T04:21:45.587Z,13.47
2023-02-11T04:24:18.270Z,12.80
2023-02-11T04:26:48.422Z,13.53
2023-02-11T04:29:18.989Z,13.37
2023-02-11T04:31:49.309Z,12.17
2023-02-11T04:34:19.637Z,12.93
2023-02-11T04:36:49.713Z,13.57
2023-02-11T04:39:22.569Z,14.90
2023-02-11T04:41:53.889Z,12.50
2023-02-11T04:44:24.040Z,12.20
2023-02-11T04:46:54.494Z,12.90
2023-02-11T04:49:24.590Z,12.70
2023-02-11T04:51:56.780Z,12.03
2023-02-11T04:54:29.474Z,13.33
2023-02-11T04:56:59.652Z,13.03
2023-02-11T04:59:29.811Z,13.23
2023-02-11T05:01:59.931Z,13.10
2023-02-11T05:04:30.172Z,13.57
2023-02-11T05:07:00.313Z,14.10
2023-02-11T05:09:32.984Z,15.80
2023-02-11T05:12:03.027Z,16.13
2023-02-11T05:14:33.393Z,14.50
2023-02-11T05:17:03.669Z,13.77
2023-02-11T05:19:34.161Z,14.40
2023-02-11T05:22:04.248Z,14.27
2023-02-11T05:24:37.801Z,13.97
2023-02-11T05:27:08.076Z,14.50
2023-02-11T05:29:38.422Z,14.70
2023-02-11T05:32:09.129Z,13.17
2023-02-11T05:34:39.318Z,14.13
2023-02-11T05:37:09.595Z,13.87
2023-02-11T05:39:50.254Z,13.67
2023-02-11T05:42:20.363Z,13.70
2023-02-11T05:44:50.822Z,13.30
2023-02-11T05:47:21.037Z,15.30
2023-02-11T05:49:51.135Z,14.17
2023-02-11T05:52:21.201Z,13.53
2023-02-11T05:54:54.109Z,14.37
2023-02-11T05:57:24.299Z,14.53
2023-02-11T05:59:54.340Z,14.80
2023-02-11T06:02:24.646Z,14.37
2023-02-11T06:04:54.996Z,13.83
2023-02-11T06:07:25.154Z,14.27
2023-02-11T06:09:57.940Z,13.77
2023-02-11T06:12:28.297Z,14.77
2023-02-11T06:14:58.485Z,15.77
2023-02-11T06:17:31.720Z,13.57
2023-02-11T06:20:02.915Z,13.73
2023-02-11T06:22:34.558Z,12.67
2023-02-11T06:25:09.241Z,12.50
2023-02-11T06:27:39.374Z,13.07
2023-02-11T06:30:12.206Z,13.60
2023-02-11T06:32:44.827Z,13.77
2023-02-11T06:35:15.756Z,12.60
2023-02-11T06:37:49.706Z,17.37
2023-02-11T06:40:25.379Z,28.43
2023-02-11T06:42:58.493Z,19.07
2023-02-11T06:45:28.632Z,16.30
2023-02-11T06:48:01.351Z,18.33
2023-02-11T06:50:31.384Z,17.60
2023-02-11T06:53:02.446Z,15.63
2023-02-11T06:55:39.621Z,14.93
2023-02-11T06:58:10.080Z,13.93
2023-02-11T07:00:41.249Z,14.27
2023-02-11T07:03:11.389Z,14.07
2023-02-11T07:05:46.058Z,13.80
2023-02-11T07:08:16.296Z,14.00
2023-02-11T07:10:48.944Z,12.97
2023-02-11T07:13:21.961Z,11.83
2023-02-11T07:15:52.877Z,13.37
2023-02-11T07:18:23.206Z,12.17
2023-02-11T07:20:58.347Z,13.50
2023-02-11T07:23:28.545Z,13.60
2023-02-11T07:26:01.324Z,12.10
2023-02-11T07:28:31.593Z,12.17
2023-02-11T07:31:01.864Z,12.20
2023-02-11T07:33:32.060Z,12.60
2023-02-11T07:36:04.096Z,12.20
2023-02-11T07:38:35.440Z,12.93
2023-02-11T07:41:12.020Z,12.00
2023-02-11T07:43:43.179Z,12.57
2023-02-11T07:46:16.540Z,13.33
2023-02-11T07:48:46.846Z,12.60
2023-02-11T07:51:19.810Z,12.20
2023-02-11T07:53:50.370Z,13.67
2023-02-11T07:56:25.226Z,12.47
2023-02-11T07:58:55.548Z,12.40
2023-02-11T08:01:28.881Z,13.07
2023-02-11T08:04:02.229Z,13.77
2023-02-11T08:06:35.060Z,14.53
2023-02-11T08:09:10.313Z,12.53
2023-02-11T08:11:43.008Z,12.23
2023-02-11T08:14:13.628Z,11.83
2023-02-11T08:16:45.629Z,11.63
2023-02-11T08:19:18.912Z,11.87
2023-02-11T08:21:48.992Z,11.87
2023-02-11T08:24:19.858Z,12.13
2023-02-11T08:26:52.897Z,11.77
2023-02-11T08:29:23.140Z,11.13
2023-02-11T08:31:53.275Z,12.50
2023-02-11T08:34:23.423Z,12.47
2023-02-11T08:36:54.069Z,11.20
2023-02-11T08:39:25.726Z,11.07
2023-02-11T08:41:59.217Z,12.80
2023-02-11T08:44:30.034Z,14.77
2023-02-11T08:47:00.102Z,12.60
2023-02-11T08:49:30.823Z,12.30
2023-02-11T08:52:03.986Z,13.60
2023-02-11T08:54:34.547Z,11.53
2023-02-11T08:57:08.495Z,12.00
2023-02-11T08:59:40.135Z,12.10
2023-02-11T09:02:15.269Z,11.57
2023-02-11T09:04:45.453Z,11.27
2023-02-11T09:07:15.597Z,12.27
2023-02-11T09:09:45.696Z,12.00
2023-02-11T09:12:18.343Z,12.13
2023-02-11T09:14:49.567Z,10.73
2023-02-11T09:17:19.627Z,11.97
2023-02-11T09:19:49.726Z,11.33
2023-02-11T09:22:20.540Z,11.43
2023-02-11T09:24:50.786Z,12.00
2023-02-11T09:27:23.468Z,12.03
2023-02-11T09:29:53.860Z,11.43
2023-02-11T09:32:24.036Z,16.33
2023-02-11T09:34:54.370Z,12.97
2023-02-11T09:37:24.443Z,13.70
2023-02-11T09:39:54.559Z,12.70
2023-02-11T09:42:46.821Z,14.40
2023-02-11T09:45:22.989Z,12.80
2023-02-11T09:48:01.139Z,11.23
2023-02-11T09:50:37.475Z,11.37
2023-02-11T09:53:14.543Z,11.27
2023-02-11T09:55:49.281Z,12.00
2023-02-11T09:58:29.677Z,11.70
2023-02-11T10:01:11.482Z,11.73
2023-02-11T10:04:12.366Z,12.40
2023-02-11T10:06:48.400Z,11.47
2023-02-11T10:09:47.997Z,11.93
2023-02-11T10:12:49.487Z,12.50
2023-02-11T10:15:37.775Z,11.77
2023-02-11T10:18:43.034Z,10.90
2023-02-11T10:21:28.579Z,11.30
2023-02-11T10:24:05.434Z,9.53
2023-02-11T10:26:39.302Z,10.73
2023-02-11T10:29:38.231Z,9.87
2023-02-11T10:32:33.048Z,9.63
2023-02-11T10:35:15.206Z,9.10
2023-02-11T10:37:45.344Z,9.43
2023-02-11T10:40:21.355Z,10.20
2023-02-11T10:42:55.690Z,9.90
2023-02-11T10:45:34.927Z,8.63
2023-02-11T10:48:29.806Z,10.00
2023-02-11T10:51:18.398Z,9.87
2023-02-11T10:53:50.304Z,9.90
2023-02-11T10:56:38.115Z,9.60
2023-02-11T10:59:24.084Z,9.77
2023-02-11T11:02:00.709Z,9.40
2023-02-11T11:04:45.339Z,9.93
2023-02-11T11:07:22.075Z,9.03
2023-02-11T11:09:56.772Z,10.03
2023-02-11T11:12:31.416Z,9.13
2023-02-11T11:15:05.292Z,10.33
2023-02-11T11:17:35.512Z,9.73
2023-02-11T11:20:36.864Z,10.13
2023-02-11T11:23:22.468Z,9.87
2023-02-11T11:26:07.895Z,9.70
2023-02-11T11:28:44.558Z,9.90
2023-02-11T11:31:23.703Z,11.33
2023-02-11T11:34:26.720Z,10.73
2023-02-11T11:37:27.759Z,11.53
2023-02-11T11:40:05.651Z,11.27
2023-02-11T11:42:39.464Z,12.03
2023-02-11T11:45:30.086Z,13.00
2023-02-11T11:48:07.109Z,13.07
2023-02-11T11:50:42.798Z,12.57
2023-02-11T11:53:27.076Z,11.67
2023-02-11T11:56:05.326Z,13.17
2023-02-11T11:58:40.752Z,12.00
2023-02-11T12:01:45.542Z,13.40
2023-02-11T12:04:55.500Z,11.73
2023-02-11T12:07:44.716Z,12.17
2023-02-11T12:10:46.875Z,12.47
2023-02-11T12:13:52.905Z,13.33
2023-02-11T12:16:38.947Z,18.83
2023-02-11T12:19:46.658Z,13.87
2023-02-11T12:22:39.075Z,14.43
2023-02-11T12:25:29.220Z,13.43
2023-02-11T12:28:40.133Z,13.60
2023-02-11T12:31:52.973Z,14.70
2023-02-11T12:34:55.326Z,13.27
2023-02-11T12:37:45.227Z,14.03
2023-02-11T12:40:25.947Z,14.17
2023-02-11T12:43:16.715Z,14.53
2023-02-11T12:46:35.024Z,14.33
2023-02-11T12:49:41.410Z,14.13
2023-02-11T12:52:32.654Z,14.57
2023-02-11T12:55:12.327Z,15.40
2023-02-11T12:57:50.648Z,14.97
2023-02-11T13:00:28.189Z,16.23
2023-02-11T13:03:08.400Z,24.30
2023-02-11T13:05:49.499Z,25.73
2023-02-11T13:08:28.933Z,24.43
2023-02-11T13:11:04.155Z,17.40
2023-02-11T13:13:48.953Z,17.07
2023-02-11T13:16:39.294Z,17.57
2023-02-11T13:19:26.670Z,17.20
2023-02-11T13:22:13.134Z,17.40
2023-02-11T13:24:49.705Z,18.40
2023-02-11T13:27:35.595Z,18.50
2023-02-11T13:30:34.074Z,16.90
2023-02-11T13:33:36.325Z,18.97
2023-02-11T13:36:33.087Z,19.33
2023-02-11T13:39:08.140Z,17.73
2023-02-11T13:41:52.174Z,18.53
2023-02-11T13:44:29.556Z,18.43
2023-02-11T13:47:05.102Z,19.47
2023-02-11T13:49:43.355Z,19.27
2023-02-11T13:52:28.604Z,18.97
2023-02-11T13:55:12.225Z,18.10
2023-02-11T13:57:44.659Z,22.00
2023-02-11T14:00:54.744Z,18.43
2023-02-11T14:03:45.516Z,18.80
2023-02-11T14:06:45.875Z,20.00
2023-02-11T14:09:53.483Z,17.70
2023-02-11T14:12:37.422Z,19.93
2023-02-11T14:15:27.863Z,18.90
2023-02-11T14:17:58.028Z,18.67
2023-02-11T14:20:48.065Z,19.47
2023-02-11T14:23:32.936Z,19.47
2023-02-11T14:26:44.076Z,19.20
2023-02-11T14:29:44.700Z,19.00
2023-02-11T14:32:38.344Z,20.67
2023-02-11T14:35:18.691Z,19.90
2023-02-11T14:38:00.345Z,20.53
2023-02-11T14:40:44.720Z,20.27
2023-02-11T14:43:29.847Z,17.90
2023-02-11T14:46:06.629Z,18.03
2023-02-11T14:48:42.090Z,17.60
2023-02-11T14:51:18.805Z,17.93
2023-02-11T14:53:54.936Z,16.80
2023-02-11T14:56:31.156Z,16.67
2023-02-11T14:59:05.313Z,18.37
2023-02-11T15:01:42.892Z,18.43
2023-02-11T15:04:29.479Z,17.73
2023-02-11T15:07:10.691Z,16.50
2023-02-11T15:09:49.121Z,17.17
2023-02-11T15:12:27.403Z,16.97
2023-02-11T15:15:03.391Z,19.63
2023-02-11T15:17:35.919Z,19.17
2023-02-11T15:20:08.931Z,19.57
2023-02-11T15:22:41.598Z,25.07
2023-02-11T15:25:17.162Z,22.83
2023-02-11T15:27:52.958Z,19.67
2023-02-11T15:30:34.339Z,21.97
2023-02-11T15:33:09.777Z,22.83
2023-02-11T15:35:42.840Z,23.00
2023-02-11T15:38:15.853Z,21.37
2023-02-11T15:40:58.392Z,22.93
2023-02-11T15:43:45.345Z,22.93
2023-02-11T15:46:19.717Z,22.17
2023-02-11T15:48:54.512Z,24.43
2023-02-11T15:51:32.913Z,23.40
2023-02-11T15:54:05.799Z,22.27
2023-02-11T15:56:44.215Z,22.27
2023-02-11T15:59:22.515Z,22.13
2023-02-11T16:01:52.927Z,19.67
2023-02-11T16:04:28.038Z,19.50
2023-02-11T16:06:58.843Z,20.37
2023-02-11T16:09:36.490Z,19.97
2023-02-11T16:12:27.097Z,21.50
2023-02-11T16:15:03.925Z,21.50
2023-02-11T16:17:34.008Z,20.27
2023-02-11T16:20:04.220Z,19.70
2023-02-11T16:22:38.151Z,17.17
2023-02-11T16:25:09.201Z,17.27
2023-02-11T16:27:44.298Z,17.37
2023-02-11T16:30:31.671Z,18.47
2023-02-11T16:33:01.807Z,18.93
2023-02-11T16:35:32.061Z,17.13
2023-02-11T16:38:02.103Z,17.37
2023-02-11T16:40:32.205Z,16.20
2023-02-11T16:43:03.450Z,17.03
2023-02-11T16:45:41.610Z,16.70
2023-02-11T16:48:16.261Z,17.23
2023-02-11T16:50:53.294Z,17.97
2023-02-11T16:53:27.861Z,16.80
2023-02-11T16:55:57.947Z,17.33
2023-02-11T16:58:28.138Z,17.33
2023-02-11T17:01:01.308Z,17.40
2023-02-11T17:03:35.654Z,17.90
2023-02-11T17:06:10.098Z,16.93
2023-02-11T17:08:41.480Z,17.67
2023-02-11T17:11:11.616Z,16.93
2023-02-11T17:13:42.260Z,17.57
2023-02-11T17:16:22.654Z,16.73
2023-02-11T17:18:53.481Z,17.87
2023-02-11T17:21:27.643Z,17.57
2023-02-11T17:23:59.656Z,16.83
2023-02-11T17:26:29.823Z,16.10
2023-02-11T17:29:00.006Z,16.03
2023-02-11T17:31:32.918Z,15.93
2023-02-11T17:34:03.115Z,16.97
2023-02-11T17:36:34.233Z,17.97
2023-02-11T17:39:08.364Z,16.60
2023-02-11T17:41:41.404Z,17.73
2023-02-11T17:44:16.341Z,17.10
2023-02-11T17:46:49.123Z,19.47
2023-02-11T17:49:20.358Z,19.23
2023-02-11T17:51:52.751Z,17.43
2023-02-11T17:54:24.799Z,37.67
2023-02-11T17:56:58.092Z,83.57
2023-02-11T17:59:35.640Z,41.40
2023-02-11T18:02:09.553Z,30.47
2023-02-11T18:04:39.831Z,22.13
2023-02-11T18:07:10.564Z,24.13
2023-02-11T18:09:43.264Z,22.40
2023-02-11T18:12:13.791Z,22.93
2023-02-11T18:14:44.520Z,20.97
2023-02-11T18:17:17.270Z,21.77
2023-02-11T18:19:47.365Z,21.07
2023-02-11T18:22:17.483Z,21.77
2023-02-11T18:24:47.798Z,25.13
2023-02-11T18:27:17.948Z,40.53
2023-02-11T18:29:47.993Z,24.60
2023-02-11T18:32:20.651Z,22.90
2023-02-11T18:34:50.787Z,21.63
2023-02-11T18:37:20.827Z,27.70
2023-02-11T18:39:50.872Z,26.73
2023-02-11T18:42:21.031Z,22.30
2023-02-11T18:44:51.067Z,21.80
2023-02-11T18:47:25.866Z,20.83
2023-02-11T18:49:55.954Z,19.83
2023-02-11T18:52:26.158Z,19.90
2023-02-11T18:54:56.228Z,20.50
2023-02-11T18:57:26.415Z,21.10
2023-02-11T18:59:58.949Z,21.87
2023-02-11T19:02:31.688Z,21.47
2023-02-11T19:05:01.863Z,19.93
2023-02-11T19:07:32.566Z,19.10
2023-02-11T19:10:02.652Z,18.63
2023-02-11T19:12:33.205Z,19.03
2023-02-11T19:15:03.398Z,18.67
2023-02-11T19:17:36.125Z,21.90
2023-02-11T19:20:07.397Z,20.27
2023-02-11T19:22:37.591Z,21.43
2023-02-11T19:25:08.839Z,22.30
2023-02-11T19:27:41.906Z,19.07
2023-02-11T19:30:14.136Z,19.77
2023-02-11T19:32:46.796Z,28.17
2023-02-11T19:35:16.928Z,40.20
2023-02-11T19:37:47.296Z,38.20
2023-02-11T19:40:20.680Z,40.83
2023-02-11T19:42:51.151Z,52.90
2023-02-11T19:45:21.532Z,60.87
2023-02-11T19:47:59.743Z,37.37
2023-02-11T19:50:29.812Z,34.77
2023-02-11T19:53:02.466Z,30.33
2023-02-11T19:55:32.543Z,29.70
2023-02-11T19:58:02.614Z,27.70
2023-02-11T20:00:32.671Z,29.83
2023-02-11T20:03:05.376Z,26.93
2023-02-11T20:05:35.799Z,28.77
2023-02-11T20:08:06.051Z,27.00
2023-02-11T20:10:37.218Z,28.00
2023-02-11T20:13:07.651Z,26.03
2023-02-11T20:15:37.805Z,25.87
2023-02-11T20:18:10.493Z,26.17
2023-02-11T20:20:44.027Z,24.07
2023-02-11T20:23:14.110Z,25.97
2023-02-11T20:25:44.203Z,26.93
2023-02-11T20:28:14.376Z,25.20
2023-02-11T20:30:44.542Z,24.70
2023-02-11T20:33:19.434Z,25.23
2023-02-11T20:35:57.448Z,25.57
2023-02-11T20:38:28.657Z,24.73
2023-02-11T20:41:06.059Z,24.00
2023-02-11T20:43:38.042Z,23.87
2023-02-11T20:46:11.729Z,25.43
2023-02-11T20:48:44.834Z,25.80
2023-02-11T20:51:18.543Z,26.07
2023-02-11T20:53:51.245Z,25.40
2023-02-11T20:56:24.481Z,28.13
2023-02-11T20:58:55.622Z,27.73
2023-02-11T21:01:30.090Z,26.00
2023-02-11T21:04:06.000Z,25.90
2023-02-11T21:06:39.757Z,26.30
2023-02-11T21:09:13.479Z,26.23
2023-02-11T21:11:44.045Z,24.83
2023-02-11T21:14:15.421Z,23.63
2023-02-11T21:16:45.543Z,25.73
2023-02-11T21:19:19.405Z,25.83
2023-02-11T21:21:49.871Z,25.97
2023-02-11T21:24:19.963Z,25.10
2023-02-11T21:26:50.069Z,23.60
2023-02-11T21:29:20.183Z,24.87
2023-02-11T21:31:51.958Z,25.67
2023-02-11T21:34:27.000Z,25.77
2023-02-11T21:36:57.231Z,24.97
2023-02-11T21:39:27.322Z,24.17
2023-02-11T21:41:57.782Z,24.33
2023-02-11T21:44:28.072Z,24.00
2023-02-11T21:46:58.266Z,21.67
2023-02-11T21:49:31.702Z,22.13
2023-02-11T21:52:01.775Z,25.23
2023-02-11T21:54:33.263Z,23.87
2023-02-11T21:57:04.887Z,26.17
2023-02-11T21:59:35.009Z,25.77
2023-02-11T22:02:05.086Z,23.00
2023-02-11T22:04:40.264Z,24.03
2023-02-11T22:07:10.451Z,25.33
2023-02-11T22:09:44.473Z,24.53
2023-02-11T22:12:14.652Z,23.93
2023-02-11T22:14:45.036Z,24.83
2023-02-11T22:17:15.286Z,23.87
2023-02-11T22:19:48.031Z,23.40
2023-02-11T22:22:19.745Z,24.00
2023-02-11T22:24:50.064Z,23.90
2023-02-11T22:27:20.990Z,24.60
2023-02-11T22:29:53.303Z,22.90
2023-02-11T22:32:23.495Z,23.07
2023-02-11T22:34:56.118Z,22.90
2023-02-11T22:37:26.514Z,22.73
2023-02-11T22:39:56.577Z,23.17
2023-02-11T22:42:26.890Z,22.33
2023-02-11T22:44:56.940Z,21.40
2023-02-11T22:47:27.084Z,24.40
2023-02-11T22:49:59.715Z,23.33
2023-02-11T22:52:29.815Z,22.53
2023-02-11T22:55:00.438Z,25.80
2023-02-11T22:57:30.626Z,23.90
2023-02-11T23:00:00.663Z,25.90
2023-02-11T23:02:30.845Z,23.47
2023-02-11T23:05:03.591Z,24.50
2023-02-11T23:07:33.717Z,21.83
2023-02-11T23:10:03.787Z,22.20
2023-02-11T23:12:33.932Z,23.37
2023-02-11T23:15:05.199Z,21.93
2023-02-11T23:17:35.399Z,25.10
2023-02-11T23:20:09.695Z,22.57
2023-02-11T23:22:41.099Z,22.37
2023-02-11T23:25:11.466Z,23.83
2023-02-11T23:27:41.604Z,21.93
2023-02-11T23:30:16.561Z,23.20
2023-02-11T23:32:46.628Z,21.57
2023-02-11T23:35:22.219Z,20.73
2023-02-11T23:37:54.533Z,21.50
2023-02-11T23:40:25.184Z,21.43
2023-02-11T23:42:55.339Z,22.53
2023-02-11T23:45:25.470Z,20.63
2023-02-11T23:47:55.818Z,22.10
2023-02-11T23:50:30.743Z,22.33
2023-02-11T23:53:00.876Z,20.60
2023-02-11T23:55:30.991Z,19.27
2023-02-11T23:58:01.106Z,19.13
